sensor_id;sensor_type;location;lat;lon;timestamp;P1;durP1;ratioP1;P2;durP2;ratioP2
4089;SDS011;2059;48.538;12.146;2023-04-15T00:00:42;6.60;;;6.10;;
4089;SDS011;2059;48.538;12.146;2023-04-15T00:05:45;7.20;;;6.70;;
4089;SDS011;2059;48.538;12.146;2023-04-15T00:10:47;7.17;;;6.50;;
4089;SDS011;2059;48.538;12.146;2023-04-15T00:15:49;8.87;;;6.80;;
4089;SDS011;2059;48.538;12.146;2023-04-15T00:20:53;6.87;;;6.37;;
4089;SDS011;2059;48.538;12.146;2023-04-15T00:25:54;8.50;;;7.07;;
4089;SDS011;2059;48.538;12.146;2023-04-15T00:30:56;7.80;;;7.20;;
4089;SDS011;2059;48.538;12.146;2023-04-15T00:35:59;7.83;;;7.13;;
4089;SDS011;2059;48.538;12.146;2023-04-15T00:41:01;7.30;;;6.70;;
4089;SDS011;2059;48.538;12.146;2023-04-15T00:46:04;7.83;;;7.10;;
4089;SDS011;2059;48.538;12.146;2023-04-15T00:51:08;8.50;;;7.70;;
4089;SDS011;2059;48.538;12.146;2023-04-15T00:56:10;8.60;;;7.67;;
4089;SDS011;2059;48.538;12.146;2023-04-15T01:01:12;8.03;;;7.23;;
4089;SDS011;2059;48.538;12.146;2023-04-15T01:06:16;7.93;;;7.27;;
4089;SDS011;2059;48.538;12.146;2023-04-15T01:11:18;7.60;;;6.90;;
4089;SDS011;2059;48.538;12.146;2023-04-15T01:16:21;8.13;;;7.53;;
4089;SDS011;2059;48.538;12.146;2023-04-15T01:21:24;8.40;;;7.70;;
4089;SDS011;2059;48.538;12.146;2023-04-15T01:26:28;8.40;;;7.63;;
4089;SDS011;2059;48.538;12.146;2023-04-15T01:31:30;7.83;;;7.03;;
4089;SDS011;2059;48.538;12.146;2023-04-15T01:36:32;8.77;;;7.97;;
4089;SDS011;2059;48.538;12.146;2023-04-15T01:41:35;9.97;;;9.03;;
4089;SDS011;2059;48.538;12.146;2023-04-15T01:46:37;8.20;;;7.50;;
4089;SDS011;2059;48.538;12.146;2023-04-15T01:51:39;9.60;;;8.70;;
4089;SDS011;2059;48.538;12.146;2023-04-15T01:56:42;8.30;;;7.60;;
4089;SDS011;2059;48.538;12.146;2023-04-15T02:01:44;8.90;;;8.00;;
4089;SDS011;2059;48.538;12.146;2023-04-15T02:06:46;8.70;;;7.80;;
4089;SDS011;2059;48.538;12.146;2023-04-15T02:11:49;9.50;;;8.57;;
4089;SDS011;2059;48.538;12.146;2023-04-15T02:16:52;8.80;;;7.70;;
4089;SDS011;2059;48.538;12.146;2023-04-15T02:21:53;9.23;;;8.33;;
4089;SDS011;2059;48.538;12.146;2023-04-15T02:26:56;8.33;;;7.63;;
4089;SDS011;2059;48.538;12.146;2023-04-15T02:31:58;9.80;;;8.40;;
4089;SDS011;2059;48.538;12.146;2023-04-15T02:37:00;9.23;;;8.40;;
4089;SDS011;2059;48.538;12.146;2023-04-15T02:42:04;11.93;;;7.97;;
4089;SDS011;2059;48.538;12.146;2023-04-15T02:47:06;8.83;;;7.87;;
4089;SDS011;2059;48.538;12.146;2023-04-15T02:52:08;11.17;;;9.97;;
4089;SDS011;2059;48.538;12.146;2023-04-15T02:57:11;9.97;;;9.00;;
4089;SDS011;2059;48.538;12.146;2023-04-15T03:02:12;10.43;;;9.43;;
4089;SDS011;2059;48.538;12.146;2023-04-15T03:07:16;11.80;;;10.60;;
4089;SDS011;2059;48.538;12.146;2023-04-15T03:12:20;11.90;;;10.80;;
4089;SDS011;2059;48.538;12.146;2023-04-15T03:17:21;11.03;;;9.93;;
4089;SDS011;2059;48.538;12.146;2023-04-15T03:22:23;16.43;;;10.70;;
4089;SDS011;2059;48.538;12.146;2023-04-15T03:27:26;12.97;;;9.77;;
4089;SDS011;2059;48.538;12.146;2023-04-15T03:32:28;9.90;;;8.90;;
4089;SDS011;2059;48.538;12.146;2023-04-15T03:37:30;10.33;;;9.03;;
4089;SDS011;2059;48.538;12.146;2023-04-15T03:42:33;13.17;;;9.33;;
4089;SDS011;2059;48.538;12.146;2023-04-15T03:47:35;10.47;;;9.47;;
4089;SDS011;2059;48.538;12.146;2023-04-15T03:52:37;10.47;;;9.43;;
4089;SDS011;2059;48.538;12.146;2023-04-15T03:57:40;10.87;;;9.80;;
4089;SDS011;2059;48.538;12.146;2023-04-15T04:02:42;11.33;;;10.07;;
4089;SDS011;2059;48.538;12.146;2023-04-15T04:07:44;10.77;;;9.33;;
4089;SDS011;2059;48.538;12.146;2023-04-15T04:12:48;11.03;;;9.03;;
4089;SDS011;2059;48.538;12.146;2023-04-15T04:17:49;10.00;;;8.73;;
4089;SDS011;2059;48.538;12.146;2023-04-15T04:22:51;11.00;;;9.70;;
4089;SDS011;2059;48.538;12.146;2023-04-15T04:27:54;11.00;;;9.90;;
4089;SDS011;2059;48.538;12.146;2023-04-15T04:32:56;10.40;;;9.40;;
4089;SDS011;2059;48.538;12.146;2023-04-15T04:37:58;9.70;;;8.80;;
4089;SDS011;2059;48.538;12.146;2023-04-15T04:43:01;12.00;;;11.00;;
4089;SDS011;2059;48.538;12.146;2023-04-15T04:48:03;10.37;;;9.27;;
4089;SDS011;2059;48.538;12.146;2023-04-15T04:53:07;9.80;;;8.93;;
4089;SDS011;2059;48.538;12.146;2023-04-15T04:58:10;11.50;;;10.40;;
4089;SDS011;2059;48.538;12.146;2023-04-15T05:03:12;9.63;;;8.60;;
4089;SDS011;2059;48.538;12.146;2023-04-15T05:08:15;12.07;;;8.83;;
4089;SDS011;2059;48.538;12.146;2023-04-15T05:13:18;9.37;;;8.57;;
4089;SDS011;2059;48.538;12.146;2023-04-15T05:18:20;10.83;;;8.50;;
4089;SDS011;2059;48.538;12.146;2023-04-15T05:23:22;9.07;;;8.27;;
4089;SDS011;2059;48.538;12.146;2023-04-15T05:28:25;10.00;;;9.10;;
4089;SDS011;2059;48.538;12.146;2023-04-15T05:33:27;8.07;;;7.27;;
4089;SDS011;2059;48.538;12.146;2023-04-15T05:38:29;7.93;;;7.17;;
4089;SDS011;2059;48.538;12.146;2023-04-15T05:43:32;8.00;;;7.20;;
4089;SDS011;2059;48.538;12.146;2023-04-15T05:48:34;7.63;;;7.03;;
4089;SDS011;2059;48.538;12.146;2023-04-15T05:53:35;12.00;;;6.93;;
4089;SDS011;2059;48.538;12.146;2023-04-15T05:58:39;6.87;;;6.27;;
4089;SDS011;2059;48.538;12.146;2023-04-15T06:03:41;7.03;;;6.33;;
4089;SDS011;2059;48.538;12.146;2023-04-15T06:08:43;8.00;;;7.20;;
4089;SDS011;2059;48.538;12.146;2023-04-15T06:13:47;13.83;;;8.87;;
4089;SDS011;2059;48.538;12.146;2023-04-15T06:18:48;7.30;;;6.70;;
4089;SDS011;2059;48.538;12.146;2023-04-15T06:23:50;8.97;;;6.90;;
4089;SDS011;2059;48.538;12.146;2023-04-15T06:28:53;9.20;;;8.50;;
4089;SDS011;2059;48.538;12.146;2023-04-15T06:33:55;9.23;;;8.50;;
4089;SDS011;2059;48.538;12.146;2023-04-15T06:38:57;8.80;;;8.20;;
4089;SDS011;2059;48.538;12.146;2023-04-15T06:44:00;8.00;;;7.20;;
4089;SDS011;2059;48.538;12.146;2023-04-15T06:49:02;7.30;;;6.60;;
4089;SDS011;2059;48.538;12.146;2023-04-15T06:54:04;7.30;;;6.70;;
4089;SDS011;2059;48.538;12.146;2023-04-15T06:59:07;9.00;;;7.00;;
4089;SDS011;2059;48.538;12.146;2023-04-15T07:04:09;7.40;;;6.80;;
4089;SDS011;2059;48.538;12.146;2023-04-15T07:09:11;6.67;;;6.13;;
4089;SDS011;2059;48.538;12.146;2023-04-15T07:14:14;6.33;;;5.73;;
4089;SDS011;2059;48.538;12.146;2023-04-15T07:19:16;7.53;;;6.83;;
4089;SDS011;2059;48.538;12.146;2023-04-15T07:24:18;5.97;;;5.57;;
4089;SDS011;2059;48.538;12.146;2023-04-15T07:29:21;6.40;;;5.80;;
4089;SDS011;2059;48.538;12.146;2023-04-15T07:34:23;6.43;;;5.83;;
4089;SDS011;2059;48.538;12.146;2023-04-15T07:39:25;9.57;;;7.10;;
4089;SDS011;2059;48.538;12.146;2023-04-15T07:44:28;6.37;;;5.77;;
4089;SDS011;2059;48.538;12.146;2023-04-15T07:49:30;6.10;;;5.47;;
4089;SDS011;2059;48.538;12.146;2023-04-15T07:54:32;6.30;;;5.80;;
4089;SDS011;2059;48.538;12.146;2023-04-15T07:59:35;6.77;;;6.17;;
4089;SDS011;2059;48.538;12.146;2023-04-15T08:04:37;6.00;;;5.50;;
4089;SDS011;2059;48.538;12.146;2023-04-15T08:09:39;6.70;;;6.20;;
4089;SDS011;2059;48.538;12.146;2023-04-15T08:14:42;6.27;;;5.77;;
4089;SDS011;2059;48.538;12.146;2023-04-15T08:19:44;7.17;;;6.57;;
4089;SDS011;2059;48.538;12.146;2023-04-15T08:24:47;6.37;;;5.77;;
4089;SDS011;2059;48.538;12.146;2023-04-15T08:29:50;6.50;;;5.90;;
4089;SDS011;2059;48.538;12.146;2023-04-15T08:34:52;7.40;;;6.80;;
4089;SDS011;2059;48.538;12.146;2023-04-15T08:39:54;10.60;;;6.90;;
4089;SDS011;2059;48.538;12.146;2023-04-15T08:44:57;7.53;;;6.93;;
4089;SDS011;2059;48.538;12.146;2023-04-15T08:50:00;7.10;;;6.60;;
4089;SDS011;2059;48.538;12.146;2023-04-15T08:55:04;6.80;;;6.20;;
4089;SDS011;2059;48.538;12.146;2023-04-15T09:00:11;6.87;;;6.23;;
4089;SDS011;2059;48.538;12.146;2023-04-15T09:05:14;7.20;;;6.50;;
4089;SDS011;2059;48.538;12.146;2023-04-15T09:10:16;7.13;;;6.43;;
4089;SDS011;2059;48.538;12.146;2023-04-15T09:15:19;6.97;;;6.30;;
4089;SDS011;2059;48.538;12.146;2023-04-15T09:20:22;6.73;;;6.07;;
4089;SDS011;2059;48.538;12.146;2023-04-15T09:25:25;6.47;;;5.87;;
4089;SDS011;2059;48.538;12.146;2023-04-15T09:30:29;7.47;;;6.87;;
4089;SDS011;2059;48.538;12.146;2023-04-15T09:35:31;7.30;;;6.60;;
4089;SDS011;2059;48.538;12.146;2023-04-15T09:40:33;6.23;;;5.77;;
4089;SDS011;2059;48.538;12.146;2023-04-15T09:45:38;7.30;;;6.63;;
4089;SDS011;2059;48.538;12.146;2023-04-15T09:50:47;8.07;;;7.47;;
4089;SDS011;2059;48.538;12.146;2023-04-15T09:55:49;10.23;;;8.90;;
4089;SDS011;2059;48.538;12.146;2023-04-15T10:00:54;9.53;;;8.73;;
4089;SDS011;2059;48.538;12.146;2023-04-15T10:05:58;11.60;;;10.50;;
4089;SDS011;2059;48.538;12.146;2023-04-15T10:11:01;7.90;;;7.27;;
4089;SDS011;2059;48.538;12.146;2023-04-15T10:16:05;9.17;;;8.30;;
4089;SDS011;2059;48.538;12.146;2023-04-15T10:21:15;8.50;;;7.70;;
4089;SDS011;2059;48.538;12.146;2023-04-15T10:26:18;9.00;;;8.20;;
4089;SDS011;2059;48.538;12.146;2023-04-15T10:31:21;10.60;;;8.10;;
4089;SDS011;2059;48.538;12.146;2023-04-15T10:36:24;9.53;;;8.30;;
4089;SDS011;2059;48.538;12.146;2023-04-15T10:41:26;7.90;;;7.10;;
4089;SDS011;2059;48.538;12.146;2023-04-15T10:46:37;9.03;;;8.10;;
4089;SDS011;2059;48.538;12.146;2023-04-15T10:51:40;8.40;;;7.70;;
4089;SDS011;2059;48.538;12.146;2023-04-15T10:56:43;8.83;;;8.00;;
4089;SDS011;2059;48.538;12.146;2023-04-15T11:07:05;10.00;;;9.00;;
4089;SDS011;2059;48.538;12.146;2023-04-15T11:12:07;10.13;;;8.70;;
4089;SDS011;2059;48.538;12.146;2023-04-15T11:17:09;10.23;;;9.13;;
4089;SDS011;2059;48.538;12.146;2023-04-15T11:22:12;9.03;;;8.17;;
4089;SDS011;2059;48.538;12.146;2023-04-15T11:27:19;8.50;;;7.70;;
4089;SDS011;2059;48.538;12.146;2023-04-15T11:32:22;8.80;;;7.57;;
4089;SDS011;2059;48.538;12.146;2023-04-15T11:37:28;7.37;;;6.87;;
4089;SDS011;2059;48.538;12.146;2023-04-15T11:42:32;7.67;;;6.97;;
4089;SDS011;2059;48.538;12.146;2023-04-15T11:47:34;7.83;;;7.03;;
4089;SDS011;2059;48.538;12.146;2023-04-15T11:52:38;7.10;;;6.50;;
4089;SDS011;2059;48.538;12.146;2023-04-15T11:57:39;7.30;;;6.60;;
4089;SDS011;2059;48.538;12.146;2023-04-15T12:02:42;6.73;;;6.13;;
4089;SDS011;2059;48.538;12.146;2023-04-15T12:13:04;6.67;;;6.03;;
4089;SDS011;2059;48.538;12.146;2023-04-15T12:18:15;5.83;;;5.43;;
4089;SDS011;2059;48.538;12.146;2023-04-15T12:23:19;5.60;;;5.10;;
4089;SDS011;2059;48.538;12.146;2023-04-15T12:28:21;5.47;;;4.97;;
4089;SDS011;2059;48.538;12.146;2023-04-15T12:33:23;6.00;;;5.60;;
4089;SDS011;2059;48.538;12.146;2023-04-15T12:38:34;5.63;;;5.13;;
4089;SDS011;2059;48.538;12.146;2023-04-15T12:43:35;5.70;;;5.30;;
4089;SDS011;2059;48.538;12.146;2023-04-15T12:48:37;5.47;;;5.00;;
4089;SDS011;2059;48.538;12.146;2023-04-15T12:53:41;5.07;;;4.77;;
4089;SDS011;2059;48.538;12.146;2023-04-15T12:58:43;4.90;;;4.60;;
4089;SDS011;2059;48.538;12.146;2023-04-15T13:03:45;4.70;;;4.40;;
4089;SDS011;2059;48.538;12.146;2023-04-15T13:08:48;4.60;;;4.30;;
4089;SDS011;2059;48.538;12.146;2023-04-15T13:13:50;5.10;;;4.47;;
4089;SDS011;2059;48.538;12.146;2023-04-15T13:18:52;5.40;;;4.03;;
4089;SDS011;2059;48.538;12.146;2023-04-15T13:23:56;3.93;;;3.63;;
4089;SDS011;2059;48.538;12.146;2023-04-15T13:28:57;3.60;;;3.30;;
4089;SDS011;2059;48.538;12.146;2023-04-15T13:33:59;4.67;;;4.37;;
4089;SDS011;2059;48.538;12.146;2023-04-15T13:39:02;3.57;;;3.23;;
4089;SDS011;2059;48.538;12.146;2023-04-15T13:44:05;3.27;;;3.07;;
4089;SDS011;2059;48.538;12.146;2023-04-15T13:49:07;3.33;;;3.00;;
4089;SDS011;2059;48.538;12.146;2023-04-15T13:54:10;4.23;;;3.00;;
4089;SDS011;2059;48.538;12.146;2023-04-15T13:59:12;3.07;;;2.93;;
4089;SDS011;2059;48.538;12.146;2023-04-15T14:04:14;4.83;;;4.03;;
4089;SDS011;2059;48.538;12.146;2023-04-15T14:09:21;3.63;;;3.43;;
4089;SDS011;2059;48.538;12.146;2023-04-15T14:14:23;3.90;;;3.70;;
4089;SDS011;2059;48.538;12.146;2023-04-15T14:19:25;5.27;;;4.87;;
4089;SDS011;2059;48.538;12.146;2023-04-15T14:24:28;5.80;;;5.27;;
4089;SDS011;2059;48.538;12.146;2023-04-15T14:29:33;4.60;;;4.20;;
4089;SDS011;2059;48.538;12.146;2023-04-15T14:34:38;4.70;;;4.40;;
4089;SDS011;2059;48.538;12.146;2023-04-15T14:39:42;3.10;;;3.00;;
4089;SDS011;2059;48.538;12.146;2023-04-15T14:44:44;3.67;;;3.00;;
4089;SDS011;2059;48.538;12.146;2023-04-15T14:49:46;3.40;;;3.07;;
4089;SDS011;2059;48.538;12.146;2023-04-15T14:54:50;3.20;;;3.00;;
4089;SDS011;2059;48.538;12.146;2023-04-15T14:59:52;3.23;;;3.13;;
4089;SDS011;2059;48.538;12.146;2023-04-15T15:04:56;4.23;;;3.93;;
4089;SDS011;2059;48.538;12.146;2023-04-15T15:10:00;3.47;;;3.27;;
4089;SDS011;2059;48.538;12.146;2023-04-15T15:15:02;4.77;;;4.27;;
4089;SDS011;2059;48.538;12.146;2023-04-15T15:20:05;4.00;;;3.70;;
4089;SDS011;2059;48.538;12.146;2023-04-15T15:25:08;3.70;;;3.30;;
4089;SDS011;2059;48.538;12.146;2023-04-15T15:30:10;4.13;;;3.73;;
4089;SDS011;2059;48.538;12.146;2023-04-15T15:35:13;4.40;;;4.00;;
4089;SDS011;2059;48.538;12.146;2023-04-15T15:40:16;4.00;;;3.60;;
4089;SDS011;2059;48.538;12.146;2023-04-15T15:45:18;4.43;;;3.70;;
4089;SDS011;2059;48.538;12.146;2023-04-15T15:50:20;4.30;;;3.73;;
4089;SDS011;2059;48.538;12.146;2023-04-15T15:55:23;3.40;;;3.13;;
4089;SDS011;2059;48.538;12.146;2023-04-15T16:00:26;5.53;;;4.53;;
4089;SDS011;2059;48.538;12.146;2023-04-15T16:05:28;4.57;;;4.20;;
4089;SDS011;2059;48.538;12.146;2023-04-15T16:10:31;5.47;;;4.00;;
4089;SDS011;2059;48.538;12.146;2023-04-15T16:15:32;4.90;;;4.50;;
4089;SDS011;2059;48.538;12.146;2023-04-15T16:20:34;5.00;;;4.77;;
4089;SDS011;2059;48.538;12.146;2023-04-15T16:25:37;4.50;;;4.30;;
4089;SDS011;2059;48.538;12.146;2023-04-15T16:30:41;3.80;;;3.60;;
4089;SDS011;2059;48.538;12.146;2023-04-15T16:35:42;3.70;;;3.50;;
4089;SDS011;2059;48.538;12.146;2023-04-15T16:40:45;5.70;;;5.20;;
4089;SDS011;2059;48.538;12.146;2023-04-15T16:45:47;3.97;;;3.77;;
4089;SDS011;2059;48.538;12.146;2023-04-15T16:50:49;4.20;;;3.90;;
4089;SDS011;2059;48.538;12.146;2023-04-15T16:55:53;5.27;;;4.10;;
4089;SDS011;2059;48.538;12.146;2023-04-15T17:00:54;4.40;;;4.10;;
4089;SDS011;2059;48.538;12.146;2023-04-15T17:05:56;4.80;;;4.50;;
4089;SDS011;2059;48.538;12.146;2023-04-15T17:10:59;3.90;;;3.50;;
4089;SDS011;2059;48.538;12.146;2023-04-15T17:16:01;4.13;;;3.53;;
4089;SDS011;2059;48.538;12.146;2023-04-15T17:21:03;3.40;;;3.20;;
4089;SDS011;2059;48.538;12.146;2023-04-15T17:26:07;3.40;;;3.10;;
4089;SDS011;2059;48.538;12.146;2023-04-15T17:31:09;3.80;;;3.50;;
4089;SDS011;2059;48.538;12.146;2023-04-15T17:36:11;3.30;;;3.10;;
4089;SDS011;2059;48.538;12.146;2023-04-15T17:41:14;3.47;;;3.27;;
4089;SDS011;2059;48.538;12.146;2023-04-15T17:46:16;4.40;;;3.47;;
4089;SDS011;2059;48.538;12.146;2023-04-15T17:51:18;3.53;;;3.33;;
4089;SDS011;2059;48.538;12.146;2023-04-15T17:56:22;5.13;;;4.73;;
4089;SDS011;2059;48.538;12.146;2023-04-15T18:01:24;8.23;;;3.63;;
4089;SDS011;2059;48.538;12.146;2023-04-15T18:06:25;4.30;;;4.00;;
4089;SDS011;2059;48.538;12.146;2023-04-15T18:11:29;3.43;;;3.23;;
4089;SDS011;2059;48.538;12.146;2023-04-15T18:16:32;4.50;;;4.30;;
4089;SDS011;2059;48.538;12.146;2023-04-15T18:21:34;4.90;;;4.40;;
4089;SDS011;2059;48.538;12.146;2023-04-15T18:26:37;5.20;;;3.90;;
4089;SDS011;2059;48.538;12.146;2023-04-15T18:31:39;5.47;;;5.07;;
4089;SDS011;2059;48.538;12.146;2023-04-15T18:36:41;5.20;;;4.80;;
4089;SDS011;2059;48.538;12.146;2023-04-15T18:41:44;5.20;;;4.70;;
4089;SDS011;2059;48.538;12.146;2023-04-15T18:46:46;4.57;;;4.17;;
4089;SDS011;2059;48.538;12.146;2023-04-15T18:51:48;5.23;;;4.83;;
4089;SDS011;2059;48.538;12.146;2023-04-15T18:56:51;5.23;;;4.83;;
4089;SDS011;2059;48.538;12.146;2023-04-15T19:01:53;4.77;;;4.40;;
4089;SDS011;2059;48.538;12.146;2023-04-15T19:06:55;4.70;;;4.37;;
4089;SDS011;2059;48.538;12.146;2023-04-15T19:11:59;4.73;;;4.43;;
4089;SDS011;2059;48.538;12.146;2023-04-15T19:17:01;5.27;;;4.80;;
4089;SDS011;2059;48.538;12.146;2023-04-15T19:22:03;5.90;;;5.40;;
4089;SDS011;2059;48.538;12.146;2023-04-15T19:27:07;6.47;;;5.83;;
4089;SDS011;2059;48.538;12.146;2023-04-15T19:32:08;6.33;;;5.83;;
4089;SDS011;2059;48.538;12.146;2023-04-15T19:37:13;9.83;;;5.83;;
4089;SDS011;2059;48.538;12.146;2023-04-15T19:42:16;8.43;;;7.63;;
4089;SDS011;2059;48.538;12.146;2023-04-15T19:47:18;7.97;;;6.47;;
4089;SDS011;2059;48.538;12.146;2023-04-15T19:52:20;7.67;;;7.00;;
4089;SDS011;2059;48.538;12.146;2023-04-15T19:57:23;9.33;;;7.60;;
4089;SDS011;2059;48.538;12.146;2023-04-15T20:02:25;7.17;;;6.57;;
4089;SDS011;2059;48.538;12.146;2023-04-15T20:07:28;8.50;;;7.63;;
4089;SDS011;2059;48.538;12.146;2023-04-15T20:12:32;7.70;;;7.00;;
4089;SDS011;2059;48.538;12.146;2023-04-15T20:17:34;8.00;;;7.30;;
4089;SDS011;2059;48.538;12.146;2023-04-15T20:22:36;8.37;;;7.47;;
4089;SDS011;2059;48.538;12.146;2023-04-15T23:20:48;10.40;;;9.40;;
4089;SDS011;2059;48.538;12.146;2023-04-15T23:25:50;10.20;;;9.37;;
4089;SDS011;2059;48.538;12.146;2023-04-15T23:30:51;9.13;;;8.07;;
4089;SDS011;2059;48.538;12.146;2023-04-15T23:35:55;9.63;;;8.73;;
4089;SDS011;2059;48.538;12.146;2023-04-15T23:40:57;9.57;;;8.67;;
